Alburg, Vermont
Current Conditions -  °F | °C
As of 9:15 AM on Thursday 18 Dec 2014 (Local Time) from KFSO Reporting Station
Light Snow Light Snow  
Wind Chill: 31°   Ceiling: 300
Heat Index: 31°   Visibility: 1.5mi
Dew Point: 31°   Wind: 0mph
Humidity: 99%   Direction: NA
Pressure: 29.83"   Gusts: NA
Location:  44.9685°N, 73.281°W
Report Text: KFSO 181315Z AUTO 00000KT 1 1/2SM -SN OVC003 00/00 A2983 RMK AO2 T10031005
Loading
Personal Weather Stations






























Interactive Weather Map New forecast layout! Learn more

10-Day Weather Forecast

Advertisements
Track Severe Weather on mobile